Pagrindinis puslapis
METAR-TAF:

METAR-TAF

Oro uostai :

Asaluyeh, Iranas

platuma: 27-22-46N, ilguma: 52-44-15E, Aukštis: 8 m

Dabartinis oras

Ataskaita buvo paskelbta 5 valandos ir 20 minutes, ne 18:00 UTC
Ramus vėjas
Temperatūra 29°C
Drėgmė 74%
Slėgis 1003 hPa
Matomumas 10 km arba daugiau
nėra debesų žemiau 1500 m ir nėra kamuolinių lietaus debesų

METAR: OIBP 231800Z 00000KT CAVOK 29/24 Q1002 A2961

Laikas: 02:50 (23:20 UTC)

Prognozė

Ataskaita buvo paskelbta 2 valandos ir 50 minutes, ne 20:30 UTC
Prognozė galioja nuo 23 metu 21 UTC su 24 metu 06 UTC
Vėjas 8 kt iš Rytų/Šiaurės Rytų
Matomumas: 6000 m
Laikinai
nuo 24 metu 00 UTC su 24 metu 03 UTC
Matomumas: 5000 m

TAF: OIBP 232030Z 2321/2406 06008KT 6000 NSC TEMPO 2400/2403 5000 HZ/BR

Orai ataskaitas ir orų prognozės (METAR, TAF).

turimą stotys yra geltonos ir raudonos taškus žemėlapyje.

Perkelti pele per norėdami pamatyti stoties vardą.

Tada spustelėkite, norėdami matyti oro stebėjimo ir prognozės.

Norėdami pakeisti žemėlapį: spustelėkite ant žalios mygtukų su juodo kryžiaus žemyn,; žalią mygtuką su brūkšneliu, jei norite nutolinti; arba žalių rodyklių gretimoms žemėlapius.


METAR-TAF: